createdAt,value
2023-04-02T00:01:01.368Z,97895.41
2023-04-02T00:03:44.439Z,97896.97
2023-04-02T00:06:30.514Z,97896.44
2023-04-02T00:09:20.430Z,97889.50
2023-04-02T00:11:50.159Z,97897.19
2023-04-02T00:14:33.637Z,97897.28
2023-04-02T00:17:04.199Z,97896.13
2023-04-02T00:19:37.483Z,97890.91
2023-04-02T00:22:09.678Z,97891.56
2023-04-02T00:24:39.093Z,97892.56
2023-04-02T00:27:11.917Z,97889.16
2023-04-02T00:29:50.641Z,97884.09
2023-04-02T00:32:26.445Z,97888.66
2023-04-02T00:34:55.578Z,97882.06
2023-04-02T00:37:28.317Z,97885.38
2023-04-02T00:40:02.245Z,97891.78
2023-04-02T00:42:34.794Z,97889.31
2023-04-02T00:45:03.260Z,97892.75
2023-04-02T00:47:38.339Z,97898.50
2023-04-02T00:50:19.384Z,97902.97
2023-04-02T00:52:50.998Z,97901.44
2023-04-02T00:55:31.868Z,97898.28
2023-04-02T00:58:01.342Z,97909.41
2023-04-02T01:00:29.310Z,97893.41
2023-04-02T01:03:13.191Z,97897.09
2023-04-02T01:05:42.578Z,97895.16
2023-04-02T01:08:17.641Z,97904.56
2023-04-02T01:10:54.023Z,97903.09
2023-04-02T01:13:41.974Z,97915.47
2023-04-02T01:16:17.427Z,97910.19
2023-04-02T01:18:51.023Z,97908.28
2023-04-02T01:21:54.268Z,97908.81
2023-04-02T01:24:26.537Z,97899.41
2023-04-02T01:27:04.736Z,97908.88
2023-04-02T01:29:39.567Z,97899.81
2023-04-02T01:32:14.021Z,97902.09
2023-04-02T01:34:44.744Z,97903.47
2023-04-02T01:37:23.397Z,97904.16
2023-04-02T01:40:06.450Z,97908.94
2023-04-02T01:42:36.660Z,97908.22
2023-04-02T01:45:12.305Z,97910.88
2023-04-02T01:47:40.669Z,97919.13
2023-04-02T01:50:32.025Z,97916.69
2023-04-02T01:53:07.245Z,97911.59
2023-04-02T01:55:39.042Z,97905.09
2023-04-02T01:58:08.903Z,97923.00
2023-04-02T02:00:43.734Z,97925.22
2023-04-02T02:03:13.017Z,97913.06
2023-04-02T02:05:41.442Z,97918.59
2023-04-02T02:08:40.830Z,97911.13
2023-04-02T02:11:16.293Z,97908.44
2023-04-02T02:14:12.039Z,97908.94
2023-04-02T02:16:41.972Z,97905.09
2023-04-02T02:19:38.559Z,97909.31
2023-04-02T02:22:13.336Z,97913.53
2023-04-02T02:24:42.181Z,97918.13
2023-04-02T02:27:25.598Z,97908.03
2023-04-02T02:30:10.907Z,97911.28
2023-04-02T02:32:48.433Z,97920.25
2023-04-02T02:35:27.221Z,97915.09
2023-04-02T02:38:20.169Z,97910.28
2023-04-02T02:40:52.802Z,97918.34
2023-04-02T02:43:21.083Z,97915.47
2023-04-02T02:45:49.911Z,97918.97
2023-04-02T02:48:21.696Z,97917.34
2023-04-02T02:50:51.167Z,97926.47
2023-04-02T02:53:24.057Z,97925.13
2023-04-02T02:56:00.404Z,97919.88
2023-04-02T02:58:34.573Z,97915.59
2023-04-02T03:01:16.677Z,97910.78
2023-04-02T03:03:47.442Z,97918.53
2023-04-02T03:06:17.247Z,97925.53
2023-04-02T03:08:52.263Z,97919.38
2023-04-02T03:11:41.001Z,97922.72
2023-04-02T03:14:39.089Z,97927.16
2023-04-02T03:17:14.924Z,97933.25
2023-04-02T03:20:25.941Z,97933.91
2023-04-02T03:23:05.899Z,97927.78
2023-04-02T03:25:53.224Z,97936.13
2023-04-02T03:28:25.805Z,97935.34
2023-04-02T03:31:24.240Z,97932.97
2023-04-02T03:34:25.636Z,97934.78
2023-04-02T03:37:00.154Z,97936.00
2023-04-02T03:39:34.526Z,97944.78
2023-04-02T03:42:09.287Z,97944.00
2023-04-02T03:44:47.047Z,97938.22
2023-04-02T03:47:23.717Z,97947.56
2023-04-02T03:50:06.304Z,97943.34
2023-04-02T03:52:37.526Z,97945.78
2023-04-02T03:55:17.970Z,97943.31
2023-04-02T03:58:00.800Z,97944.03
2023-04-02T04:00:39.530Z,97943.50
2023-04-02T04:03:18.531Z,97953.78
2023-04-02T04:05:58.643Z,97948.47
2023-04-02T04:08:34.622Z,97941.34
2023-04-02T04:11:10.610Z,97945.50
2023-04-02T04:13:51.258Z,97955.81
2023-04-02T04:16:24.574Z,97945.81
2023-04-02T04:19:03.724Z,97957.47
2023-04-02T04:21:37.830Z,97961.28
2023-04-02T04:24:22.605Z,97961.59
2023-04-02T04:27:04.553Z,97959.44
2023-04-02T04:30:03.988Z,97963.00
2023-04-02T04:32:39.062Z,97962.78
2023-04-02T04:35:37.717Z,97966.63
2023-04-02T04:38:16.918Z,97967.38
2023-04-02T04:40:54.460Z,97977.53
2023-04-02T04:43:57.038Z,97965.25
2023-04-02T04:46:40.276Z,97979.63
2023-04-02T04:49:19.748Z,97977.28
2023-04-02T04:51:55.885Z,97977.19
2023-04-02T04:54:28.959Z,97981.16
2023-04-02T04:57:02.725Z,97982.53
2023-04-02T04:59:42.762Z,97987.69
2023-04-02T05:02:17.462Z,97986.25
2023-04-02T05:04:51.000Z,97981.53
2023-04-02T05:07:28.264Z,97986.00
2023-04-02T05:10:09.483Z,97997.19
2023-04-02T05:13:01.898Z,97988.56
2023-04-02T05:15:40.024Z,98007.53
2023-04-02T05:18:18.317Z,97997.69
2023-04-02T05:21:16.579Z,97997.00
2023-04-02T05:23:51.173Z,97998.66
2023-04-02T05:26:25.850Z,98003.88
2023-04-02T05:29:01.346Z,98002.75
2023-04-02T05:31:56.664Z,98003.28
2023-04-02T05:34:32.438Z,98004.91
2023-04-02T05:37:00.502Z,98009.81
2023-04-02T05:39:29.442Z,98007.91
2023-04-02T05:42:04.954Z,98005.78
2023-04-02T05:45:21.559Z,98011.75
2023-04-02T05:47:53.956Z,98016.91
2023-04-02T05:50:43.110Z,98017.34
2023-04-02T05:53:24.970Z,98028.94
2023-04-02T05:56:20.799Z,98007.38
2023-04-02T05:59:00.919Z,98017.41
2023-04-02T06:01:51.337Z,98025.22
2023-04-02T06:04:31.062Z,98017.09
2023-04-02T06:07:14.677Z,98016.22
2023-04-02T06:10:05.014Z,98020.50
2023-04-02T06:13:00.266Z,98020.41
2023-04-02T06:15:31.640Z,98017.91
2023-04-02T06:18:19.187Z,98028.19
2023-04-02T06:20:48.706Z,98033.63
2023-04-02T06:23:45.338Z,98034.19
2023-04-02T06:26:31.400Z,98037.47
2023-04-02T06:29:39.631Z,98038.13
2023-04-02T06:32:12.346Z,98037.69
2023-04-02T06:34:43.040Z,98047.56
2023-04-02T06:37:21.352Z,98042.22
2023-04-02T06:39:52.967Z,98049.47
2023-04-02T06:42:38.602Z,98053.88
2023-04-02T06:45:35.231Z,98054.13
2023-04-02T06:48:19.549Z,98062.41
2023-04-02T06:51:10.764Z,98063.69
2023-04-02T06:53:44.674Z,98062.91
2023-04-02T06:56:22.289Z,98068.09
2023-04-02T06:58:50.339Z,98069.25
2023-04-02T07:01:23.280Z,98065.31
2023-04-02T07:03:52.181Z,98072.94
2023-04-02T07:06:28.138Z,98071.47
2023-04-02T07:08:59.543Z,98068.19
2023-04-02T07:11:27.840Z,98075.13
2023-04-02T07:13:59.068Z,98066.81
2023-04-02T07:16:29.437Z,98075.19
2023-04-02T07:18:58.906Z,98072.75
2023-04-02T07:21:28.658Z,98094.53
2023-04-02T07:23:57.488Z,98083.91
2023-04-02T07:26:27.958Z,98076.63
2023-04-02T07:28:56.530Z,98089.03
2023-04-02T07:31:27.191Z,98083.31
2023-04-02T07:33:59.691Z,98085.03
2023-04-02T07:36:29.216Z,98086.63
2023-04-02T07:38:57.294Z,98090.56
2023-04-02T07:41:24.980Z,98084.19
2023-04-02T07:43:52.756Z,98091.59
2023-04-02T07:46:20.457Z,98081.84
2023-04-02T07:48:48.390Z,98087.91
2023-04-02T07:51:24.746Z,98089.53
2023-04-02T07:53:56.390Z,98093.75
2023-04-02T07:56:25.403Z,98097.63
2023-04-02T07:58:53.143Z,98099.72
2023-04-02T08:01:26.890Z,98100.25
2023-04-02T08:03:56.651Z,98102.53
2023-04-02T08:06:25.715Z,98103.03
2023-04-02T08:08:53.453Z,98095.88
2023-04-02T08:11:21.378Z,98097.50
2023-04-02T08:13:49.734Z,98106.72
2023-04-02T08:16:18.629Z,98114.09
2023-04-02T08:18:47.675Z,98110.84
2023-04-02T08:21:16.819Z,98116.50
2023-04-02T08:23:44.875Z,98118.97
2023-04-02T08:26:18.641Z,98117.41
2023-04-02T08:28:47.017Z,98120.16
2023-04-02T08:31:15.025Z,98118.88
2023-04-02T08:33:43.128Z,98123.59
2023-04-02T08:36:18.504Z,98119.50
2023-04-02T08:38:46.206Z,98124.94
2023-04-02T08:41:27.818Z,98121.94
2023-04-02T08:44:27.344Z,98124.47
2023-04-02T08:47:04.099Z,98123.34
2023-04-02T08:49:37.826Z,98131.41
2023-04-02T08:52:05.892Z,98127.91
2023-04-02T08:54:38.090Z,98128.41
2023-04-02T08:57:27.401Z,98141.88
2023-04-02T09:00:06.166Z,98134.34
2023-04-02T09:02:43.595Z,98140.44
2023-04-02T09:05:19.379Z,98139.63
2023-04-02T09:07:48.909Z,98142.53
2023-04-02T09:10:17.918Z,98144.28
2023-04-02T09:12:54.381Z,98149.81
2023-04-02T09:15:35.545Z,98149.56
2023-04-02T09:18:19.115Z,98152.47
2023-04-02T09:20:50.472Z,98144.47
2023-04-02T09:23:22.264Z,98159.34
2023-04-02T09:26:03.604Z,98148.59
2023-04-02T09:28:32.440Z,98146.41
2023-04-02T09:31:09.238Z,98153.84
2023-04-02T09:33:42.741Z,98157.69
2023-04-02T09:36:26.010Z,98156.44
2023-04-02T09:39:07.018Z,98162.88
2023-04-02T09:41:36.989Z,98161.94
2023-04-02T09:44:28.384Z,98165.50
2023-04-02T09:47:06.095Z,98157.31
2023-04-02T09:49:36.777Z,98172.91
2023-04-02T09:52:27.454Z,98165.00
2023-04-02T09:55:16.726Z,98166.97
2023-04-02T09:57:46.629Z,98168.84
2023-04-02T10:00:25.995Z,98176.22
2023-04-02T10:03:03.676Z,98168.53
2023-04-02T10:05:40.587Z,98173.84
2023-04-02T10:08:19.078Z,98176.25
2023-04-02T10:10:53.043Z,98178.47
2023-04-02T10:13:46.301Z,98177.22
2023-04-02T10:16:20.630Z,98165.47
2023-04-02T10:18:52.107Z,98170.91
2023-04-02T10:21:36.207Z,98176.00
2023-04-02T10:24:12.691Z,98164.38
2023-04-02T10:26:55.407Z,98172.22
2023-04-02T10:29:31.887Z,98167.84
2023-04-02T10:32:12.441Z,98163.94
2023-04-02T10:34:46.112Z,98159.19
2023-04-02T10:37:54.464Z,98156.91
2023-04-02T10:40:42.248Z,98170.47
2023-04-02T10:43:33.278Z,98155.56
2023-04-02T10:46:09.042Z,98155.00
2023-04-02T10:49:23.639Z,98166.28
2023-04-02T10:52:07.673Z,98176.00
2023-04-02T10:54:57.950Z,98164.47
2023-04-02T10:57:40.716Z,98165.94
2023-04-02T11:00:11.962Z,98170.00
2023-04-02T11:02:54.898Z,98171.75
2023-04-02T11:05:40.267Z,98175.34
2023-04-02T11:08:18.721Z,98173.22
2023-04-02T11:11:09.502Z,98175.16
2023-04-02T11:14:00.520Z,98177.78
2023-04-02T11:16:28.664Z,98176.25
2023-04-02T11:19:14.630Z,98181.94
2023-04-02T11:22:02.697Z,98167.16
2023-04-02T11:24:42.568Z,98177.09
2023-04-02T11:27:10.026Z,98167.50
2023-04-02T11:30:01.343Z,98166.34
2023-04-02T11:32:42.749Z,98165.47
2023-04-02T11:35:32.212Z,98169.59
2023-04-02T11:38:23.757Z,98162.09
2023-04-02T11:40:55.214Z,98169.63
2023-04-02T11:43:35.852Z,98161.78
2023-04-02T11:46:16.060Z,98166.63
2023-04-02T11:48:46.753Z,98165.69
2023-04-02T11:51:21.746Z,98171.31
2023-04-02T11:53:51.766Z,98169.84
2023-04-02T11:56:48.208Z,98172.97
2023-04-02T11:59:39.218Z,98172.00
2023-04-02T12:02:19.939Z,98169.44
2023-04-02T12:04:56.616Z,98172.06
2023-04-02T12:07:55.884Z,98168.09
2023-04-02T12:10:32.142Z,98160.63
2023-04-02T12:13:00.988Z,98150.56
2023-04-02T12:15:45.326Z,98154.91
2023-04-02T12:18:14.926Z,98155.47
2023-04-02T12:20:51.657Z,98155.84
2023-04-02T12:23:31.821Z,98154.41
2023-04-02T12:26:10.595Z,98149.06
2023-04-02T12:28:38.320Z,98149.47
2023-04-02T12:31:17.486Z,98144.72
2023-04-02T12:33:45.841Z,98140.94
2023-04-02T12:36:14.650Z,98130.75
2023-04-02T12:38:54.541Z,98132.06
2023-04-02T12:41:24.085Z,98139.06
2023-04-02T12:43:59.071Z,98142.34
2023-04-02T12:46:27.633Z,98136.00
2023-04-02T12:49:04.251Z,98130.44
2023-04-02T12:51:32.314Z,98135.19
2023-04-02T12:54:00.025Z,98129.41
2023-04-02T12:56:27.697Z,98124.53
2023-04-02T12:58:58.569Z,98136.31
2023-04-02T13:01:31.904Z,98123.81
2023-04-02T13:04:03.434Z,98126.97
2023-04-02T13:06:32.025Z,98121.44
2023-04-02T13:09:07.016Z,98115.50
2023-04-02T13:11:43.525Z,98119.34
2023-04-02T13:14:20.353Z,98121.19
2023-04-02T13:16:55.841Z,98126.78
2023-04-02T13:19:30.274Z,98126.59
2023-04-02T13:22:03.428Z,98135.31
2023-04-02T13:24:34.677Z,98129.59
2023-04-02T13:27:03.360Z,98127.38
2023-04-02T13:29:35.968Z,98129.63
2023-04-02T13:32:06.882Z,98127.16
2023-04-02T13:34:37.757Z,98129.56
2023-04-02T13:37:05.777Z,98140.22
2023-04-02T13:39:33.652Z,98139.94
2023-04-02T13:42:03.769Z,98139.06
2023-04-02T13:44:33.838Z,98141.22
2023-04-02T13:47:01.811Z,98147.66
2023-04-02T13:49:29.770Z,98152.78
2023-04-02T13:52:03.101Z,98143.38
2023-04-02T13:54:48.828Z,98143.00
2023-04-02T13:57:16.924Z,98144.63
2023-04-02T13:59:44.577Z,98133.69
2023-04-02T14:02:25.794Z,98136.31
2023-04-02T14:05:29.557Z,98129.28
2023-04-02T14:08:15.566Z,98128.72
2023-04-02T14:11:17.479Z,98136.59
